Current Conditions - Area Ports

 

CYWH - Victoria Harbour, British Columbia, Canada
Distance from station: WSW 10km
Updated: 10/23/2019 11:00am
Mostly cloudy
Mostly cloudy
 Wind from NW
Wind: NW 6 km/h
Temperature: 9°C
Dew Point: 7°C
Humidity: 87%
Barometer: 1034.2 hPa
Clouds: Mostly cloudy
Visibility: 24 km
Cloud details: Mostly cloudy 701 m
2019/10/23 18:00 CYWH 231800Z 32003KT 300V360 15SM BKN023 09/07 A3054 RMK SC7 SLP344
KFHR - Friday Harbor, Washington, USA
Distance from station: ENE 19km
Updated: 10/23/2019 11:53am
Mostly cloudy
Mostly cloudy
 Wind from varies
Wind: varies 6 km/h
Temperature: 11°C
Dew Point: 7°C
Humidity: 77%
Barometer: 1034.5 hPa
Clouds: Mostly cloudy
Visibility: 16 km
Cloud details: Mostly cloudy 762 m
2019/10/23 18:53 KFHR 231853Z AUTO VRB03KT 10SM BKN025 11/07 A3055 RMK AO2 SLP344 T01060072
 
KORS - Eastsound/Orcas, Washington, USA
Distance from station: NE 38km
Updated: 10/23/2019 11:55am
Clear
Clear
 Wind from varies
Wind: varies 7 km/h
Temperature: 10°C
Wind Chill: 9°C
Dew Point: 8°C
Humidity: 88%
Barometer: 1034.2 hPa
Clouds: Clear
Visibility: 16 km
2019/10/23 18:55 KORS 231855Z AUTO VRB04KT 10SM CLR 10/08 A3054 RMK AO2
KNUW - Whidbey Is. Nas, Washington, USA
Distance from station: ESE 47km
Updated: 10/23/2019 11:56am
Mostly cloudy
Mostly cloudy
 Wind from NW
Wind: NW 7 km/h
Temperature: 12°C
Dew Point: 7°C
Humidity: 72%
Barometer: 1035.2 hPa
Clouds: Mostly cloudy
Visibility: 16 km
Cloud details: Few Clouds 274 m
Mostly cloudy 671 m
Mostly cloudy 1006 m
2019/10/23 18:56 KNUW 231856Z 31004KT 10SM FEW009 BKN022 BKN033 12/07 A3057 RMK AO2 SLP349 T01220072 $
 
CWEZ - Saturna Isl (map, British Columbia, Canada
Distance from station: NNE 40km
Updated: 10/23/2019 11:00am

 Wind from NE
Wind: NE 9 km/h
Temperature: 11°C
Dew Point: 6°C
Humidity: 72%
2019/10/23 18:00 CWEZ 231800Z AUTO 04005KT 11/06 RMK AO1 SLP339 T01130061 51011
CYCD - Nanaimo Airport, British Columbia, Canada
Distance from station: NW 80km
Updated: 10/23/2019 11:00am
Partly cloudy
Partly cloudy
 Wind from NE
Wind: NE 6 km/h
Temperature: 11°C
Dew Point: 6°C
Humidity: 72%
Barometer: 1034.2 hPa
Clouds: Partly cloudy
Visibility: 40 km
Cloud details: Few Clouds 1067 m
Partly cloudy 7620 m
2019/10/23 18:00 CYCD 231800Z 04003KT 25SM FEW035 SCT250 11/06 A3054 RMK CU1CI3 SLP344
 
CWVF - Sand Heads (ls), British Columbia, Canada
Distance from station: N 72km
Updated: 10/23/2019 11:00am

 Wind from ENE
Wind: ENE 6 km/h
Temperature: 10°C
Dew Point: 8°C
Humidity: 88%
2019/10/23 18:00 CWVF 231800Z AUTO 07003KT 10/08 RMK AO1 T00960077
CWQK - Race Rocks Autob, British Columbia, Canada
Distance from station: SW 26km
Updated: 10/23/2019 11:00am

 Wind from NE
Wind: NE 17 km/h
Temperature: 9°C
Wind Chill: 7°C
Dew Point: 6°C
Humidity: 82%
2019/10/23 18:00 CWQK 231800Z AUTO 04009KT 09/06 RMK AO1 SLP341 T00910061 51012
 
CWSP - Sheringham Autob, British Columbia, Canada
Distance from station: W 49km
Updated: 10/23/2019 11:00am

 Wind from ESE
Wind: ESE 20 km/h
Temperature: 10°C
Wind Chill: 7°C
2019/10/23 18:00 CWSP 231800Z AUTO 12011KT 10/ RMK AO1 SLP338 T0098 51009